Puget Sound — WCZ5670 — position and weather

sailwx.info

Track history (hours):
 
Tides and Currents Weather Stations Pressure Air Temp Water Temp Dewpoint Dewpoint Depression Visibility Wind Speed Wind Dir Waves Ship Positions

Puget Sound

Owner: PUGET SOUND PILOTS, SEATTLE, WA. More information available from US FCC via Universal Licensing System and Coast Guard Vessel Documentation Center.

Last reported at 2018-Apr-22 13:09 UTC. Time now 2018-Apr-23 03:52 UTC.
Position N 48°08' W 123°25'.

Length 23 m; draft 1.7 m.

Type: Pilot. MMSI: 366825190.

Date/timePositionNaut miles runAvg speedWind from/ knotsBaromVisibWave heightAir tempDewpointWater temp
2018-Apr-22 13:09N 48°08' W 123°25'0 0.2
2018-Apr-22 12:58N 48°08' W 123°26'0 0.0
2018-Apr-22 12:26N 48°08' W 123°26'0 0.1
2018-Apr-22 12:00N 48°08' W 123°25'0 0.0
2018-Apr-22 11:29N 48°08' W 123°25'0 0.5
2018-Apr-22 11:01N 48°08' W 123°25'0 0.5
2018-Apr-22 10:30N 48°08' W 123°26'0 0.0
2018-Apr-22 10:00N 48°08' W 123°26'0 0.0
2018-Apr-22 09:30N 48°08' W 123°26'0 0.0
2018-Apr-21 13:39N 48°08' W 123°25'0 0.0
2018-Apr-21 13:22N 48°08' W 123°25'0 0.1
2018-Apr-21 12:55N 48°08' W 123°26'0 0.1
2018-Apr-21 12:29N 48°08' W 123°25'2 5.1
2018-Apr-21 12:01N 48°09' W 123°22'1 1.2
2018-Apr-21 11:30N 48°09' W 123°22'3 4.1
2018-Apr-21 10:51N 48°08' W 123°25'0 0.0
2018-Apr-21 10:29N 48°08' W 123°25'0 0.1
2018-Apr-21 10:00N 48°08' W 123°26'0 0.1
2018-Apr-21 09:28N 48°08' W 123°25'0 0.1
2018-Apr-21 08:59N 48°08' W 123°26'0 0.0
2018-Apr-21 07:11N 48°08' W 123°25'0 0.0
2018-Apr-21 07:00N 48°08' W 123°25'0 0.1
2018-Apr-21 06:30N 48°08' W 123°26'0 0.0
2018-Apr-20 14:28N 48°08' W 123°25'0 0.0
2018-Apr-20 14:00N 48°08' W 123°25'0 0.0
2018-Apr-20 13:30N 48°08' W 123°25'0 0.1
2018-Apr-20 13:00N 48°08' W 123°26'0 0.0
2018-Apr-20 12:29N 48°08' W 123°26'0 0.0
2018-Apr-20 11:54N 48°08' W 123°26'0 0.0
2018-Apr-20 11:30N 48°08' W 123°26'0 0.1
2018-Apr-20 10:52N 48°08' W 123°25'0 0.0
2018-Apr-20 10:24N 48°08' W 123°25'0 0.1
2018-Apr-20 10:00N 48°08' W 123°26'0 0.1
2018-Apr-20 09:30N 48°08' W 123°25'0 0.0
2018-Apr-20 09:00N 48°08' W 123°25'0 0.0
2018-Apr-20 08:30N 48°08' W 123°25'0 0.1
2018-Apr-20 08:00N 48°08' W 123°26'0 0.0
2018-Apr-20 07:30N 48°08' W 123°26'0 0.0
2018-Apr-19 13:53N 48°08' W 123°25'0 0.1
2018-Apr-19 13:30N 48°08' W 123°26'0 0.0
2018-Apr-19 13:00N 48°08' W 123°26'0 0.0
2018-Apr-19 12:30N 48°08' W 123°26'0 0.1
2018-Apr-19 11:57N 48°08' W 123°25'0 0.0
2018-Apr-19 11:30N 48°08' W 123°25'0 0.0
2018-Apr-19 11:00N 48°08' W 123°25'0 0.0
2018-Apr-19 10:28N 48°08' W 123°25'0 0.1
2018-Apr-19 10:00N 48°08' W 123°26'0 0.0
2018-Apr-19 09:29N 48°08' W 123°26'0 0.1
2018-Apr-19 09:00N 48°08' W 123°25'0 0.0
2018-Apr-19 08:30N 48°08' W 123°25'0 0.1
2018-Apr-19 08:00N 48°08' W 123°26'0 0.1
2018-Apr-19 07:30N 48°08' W 123°25'0 0.0
2018-Apr-19 07:00N 48°08' W 123°25'0 0.1
2018-Apr-19 06:30N 48°08' W 123°26'0 0.1
2018-Apr-19 05:58N 48°08' W 123°25'0 0.0
2018-Apr-18 14:14N 48°08' W 123°25'0 0.0
2018-Apr-18 13:59N 48°08' W 123°25'0 0.9
2018-Apr-18 13:31N 48°08' W 123°25'0 0.9
2018-Apr-18 13:00N 48°08' W 123°26'1 1.1
2018-Apr-18 12:27N 48°08' W 123°25'2 4.7
2018-Apr-18 12:00N 48°08' W 123°22'2 4.0
2018-Apr-18 11:28N 48°08' W 123°25'0 0.0
2018-Apr-18 10:59N 48°08' W 123°25'0 0.0
2018-Apr-18 10:00N 48°08' W 123°25'0 0.0
2018-Apr-18 09:29N 48°08' W 123°25'0 0.0
2018-Apr-18 08:44N 48°08' W 123°25'0 0.0
2018-Apr-18 08:25N 48°08' W 123°25'0 0.1
2018-Apr-18 07:48N 48°08' W 123°26'0 0.0
2018-Apr-18 07:22N 48°08' W 123°26'0 0.0
2018-Apr-18 06:59N 48°08' W 123°26'0 0.1
2018-Apr-18 06:24N 48°08' W 123°25'0 0.1
2018-Apr-18 05:55N 48°08' W 123°26'0 0.0
2018-Apr-17 14:29N 48°08' W 123°25'0 0.0
2018-Apr-17 14:00N 48°08' W 123°25'0 0.1
2018-Apr-17 13:26N 48°08' W 123°26'0 0.1
2018-Apr-17 12:55N 48°08' W 123°25'0 0.1
2018-Apr-17 12:30N 48°08' W 123°26'0 0.1
2018-Apr-17 11:58N 48°08' W 123°25'0 0.0
2018-Apr-17 11:30N 48°08' W 123°25'0 0.0
2018-Apr-17 11:00N 48°08' W 123°25'0 0.0
2018-Apr-17 10:30N 48°08' W 123°25'0 0.0
2018-Apr-17 10:00N 48°08' W 123°25'0 0.0
2018-Apr-17 09:29N 48°08' W 123°25'0 0.0
2018-Apr-17 08:57N 48°08' W 123°25'0 0.0
2018-Apr-17 08:30N 48°08' W 123°25'0 0.0
2018-Apr-17 07:59N 48°08' W 123°25'0 0.1
2018-Apr-17 07:30N 48°08' W 123°26'0 0.1
2018-Apr-17 06:56N 48°08' W 123°25'0 0.0
2018-Apr-17 06:30N 48°08' W 123°25'0 0.0
2018-Apr-17 06:00N 48°08' W 123°25'0 0.0
2018-Apr-16 14:09N 48°08' W 123°25'0 0.0
2018-Apr-16 14:00N 48°08' W 123°25'0 0.1
2018-Apr-16 13:28N 48°08' W 123°26'0 0.1
2018-Apr-16 12:59N 48°08' W 123°25'0 0.0
2018-Apr-16 12:30N 48°08' W 123°25'0 0.0
2018-Apr-16 12:00N 48°08' W 123°25'0 0.0
2018-Apr-16 11:30N 48°08' W 123°25'0 0.0
2018-Apr-16 10:58N 48°08' W 123°25'0 0.0
2018-Apr-16 10:30N 48°08' W 123°25'0 0.0
2018-Apr-16 10:00N 48°08' W 123°25'0 0.0
2018-Apr-16 09:30N 48°08' W 123°25'0 0.0
2018-Apr-16 09:00N 48°08' W 123°25'0 0.0
2018-Apr-16 08:29N 48°08' W 123°25'0 0.0
2018-Apr-16 08:00N 48°08' W 123°25'0 0.0
2018-Apr-16 07:30N 48°08' W 123°25'0 0.0
2018-Apr-16 07:00N 48°08' W 123°25'0 0.0
2018-Apr-16 06:30N 48°08' W 123°25'0 0.1
2018-Apr-16 06:00N 48°08' W 123°26'0 0.1
2018-Apr-16 05:28N 48°08' W 123°25'0 0.1
2018-Apr-16 05:00N 48°08' W 123°26'1 0.1
2018-Apr-15 14:48N 48°08' W 123°24'2 6.0
2018-Apr-15 14:30N 48°08' W 123°22'2 4.2
2018-Apr-15 14:00N 48°08' W 123°25'1 1.1
2018-Apr-15 13:28N 48°08' W 123°25'0 0.0
2018-Apr-15 13:00N 48°08' W 123°25'0 0.0
2018-Apr-15 12:30N 48°08' W 123°25'0 0.0
2018-Apr-15 12:00N 48°08' W 123°25'0 0.0
2018-Apr-15 11:29N 48°08' W 123°25'0 0.0
2018-Apr-15 10:59N 48°08' W 123°25'0 0.1
2018-Apr-15 10:30N 48°08' W 123°26'0 0.0
2018-Apr-15 09:59N 48°08' W 123°26'0 0.1
2018-Apr-15 09:30N 48°08' W 123°25'0 0.0
2018-Apr-15 08:59N 48°08' W 123°25'0 0.0
2018-Apr-15 08:29N 48°08' W 123°25'0 0.0
2018-Apr-15 07:08N 48°08' W 123°26'0 0.3
2018-Apr-15 06:59N 48°08' W 123°25'0 0.0
2018-Apr-15 06:30N 48°08' W 123°25'0 0.0
2018-Apr-15 06:00N 48°08' W 123°25'0 0.0
2018-Apr-14 14:25N 48°08' W 123°25'0 0.0
2018-Apr-14 13:30N 48°08' W 123°26'0 0.1
2018-Apr-14 12:56N 48°08' W 123°25'2 4.6
2018-Apr-14 12:30N 48°09' W 123°23'2 1.7
2018-Apr-14 11:20N 48°08' W 123°25'0 0.0
2018-Apr-14 10:58N 48°08' W 123°25'0 0.1
2018-Apr-14 10:29N 48°08' W 123°26'0 0.1
2018-Apr-14 09:58N 48°08' W 123°25'0 0.0
2018-Apr-12 13:54N 48°08' W 123°26'0 0.0
2018-Apr-12 13:30N 48°08' W 123°26'  
Track history (hours):
 
Tides and Currents Weather Stations Pressure Air Temp Water Temp Dewpoint Dewpoint Depression Visibility Wind Speed Wind Dir Waves Ship Positions

Puget Sound

Owner: PUGET SOUND PILOTS, SEATTLE, WA. More information available from US FCC via Universal Licensing System and Coast Guard Vessel Documentation Center.

Last reported at 2018-Apr-22 13:09 UTC. Time now 2018-Apr-23 03:52 UTC.
Position N 48°08' W 123°25'.

Length 23 m; draft 1.7 m.

Type: Pilot. MMSI: 366825190.

Date/timePositionNaut miles runAvg speedWind from/ knotsBaromVisibWave heightAir tempDewpointWater temp
2018-Apr-22 13:09N 48°08' W 123°25'0 0.2
2018-Apr-22 12:58N 48°08' W 123°26'0 0.0
2018-Apr-22 12:26N 48°08' W 123°26'0 0.1
2018-Apr-22 12:00N 48°08' W 123°25'0 0.0
2018-Apr-22 11:29N 48°08' W 123°25'0 0.5
2018-Apr-22 11:01N 48°08' W 123°25'0 0.5
2018-Apr-22 10:30N 48°08' W 123°26'0 0.0
2018-Apr-22 10:00N 48°08' W 123°26'0 0.0
2018-Apr-22 09:30N 48°08' W 123°26'0 0.0
2018-Apr-21 13:39N 48°08' W 123°25'0 0.0
2018-Apr-21 13:22N 48°08' W 123°25'0 0.1
2018-Apr-21 12:55N 48°08' W 123°26'0 0.1
2018-Apr-21 12:29N 48°08' W 123°25'2 5.1
2018-Apr-21 12:01N 48°09' W 123°22'1 1.2
2018-Apr-21 11:30N 48°09' W 123°22'3 4.1
2018-Apr-21 10:51N 48°08' W 123°25'0 0.0
2018-Apr-21 10:29N 48°08' W 123°25'0 0.1
2018-Apr-21 10:00N 48°08' W 123°26'0 0.1
2018-Apr-21 09:28N 48°08' W 123°25'0 0.1
2018-Apr-21 08:59N 48°08' W 123°26'0 0.0
2018-Apr-21 07:11N 48°08' W 123°25'0 0.0
2018-Apr-21 07:00N 48°08' W 123°25'0 0.1
2018-Apr-21 06:30N 48°08' W 123°26'0 0.0
2018-Apr-20 14:28N 48°08' W 123°25'0 0.0
2018-Apr-20 14:00N 48°08' W 123°25'0 0.0
2018-Apr-20 13:30N 48°08' W 123°25'0 0.1
2018-Apr-20 13:00N 48°08' W 123°26'0 0.0
2018-Apr-20 12:29N 48°08' W 123°26'0 0.0
2018-Apr-20 11:54N 48°08' W 123°26'0 0.0
2018-Apr-20 11:30N 48°08' W 123°26'0 0.1
2018-Apr-20 10:52N 48°08' W 123°25'0 0.0
2018-Apr-20 10:24N 48°08' W 123°25'0 0.1
2018-Apr-20 10:00N 48°08' W 123°26'0 0.1
2018-Apr-20 09:30N 48°08' W 123°25'0 0.0
2018-Apr-20 09:00N 48°08' W 123°25'0 0.0
2018-Apr-20 08:30N 48°08' W 123°25'0 0.1
2018-Apr-20 08:00N 48°08' W 123°26'0 0.0
2018-Apr-20 07:30N 48°08' W 123°26'0 0.0
2018-Apr-19 13:53N 48°08' W 123°25'0 0.1
2018-Apr-19 13:30N 48°08' W 123°26'0 0.0
2018-Apr-19 13:00N 48°08' W 123°26'0 0.0
2018-Apr-19 12:30N 48°08' W 123°26'0 0.1
2018-Apr-19 11:57N 48°08' W 123°25'0 0.0
2018-Apr-19 11:30N 48°08' W 123°25'0 0.0
2018-Apr-19 11:00N 48°08' W 123°25'0 0.0
2018-Apr-19 10:28N 48°08' W 123°25'0 0.1
2018-Apr-19 10:00N 48°08' W 123°26'0 0.0
2018-Apr-19 09:29N 48°08' W 123°26'0 0.1
2018-Apr-19 09:00N 48°08' W 123°25'0 0.0
2018-Apr-19 08:30N 48°08' W 123°25'0 0.1
2018-Apr-19 08:00N 48°08' W 123°26'0 0.1
2018-Apr-19 07:30N 48°08' W 123°25'0 0.0
2018-Apr-19 07:00N 48°08' W 123°25'0 0.1
2018-Apr-19 06:30N 48°08' W 123°26'0 0.1
2018-Apr-19 05:58N 48°08' W 123°25'0 0.0
2018-Apr-18 14:14N 48°08' W 123°25'0 0.0
2018-Apr-18 13:59N 48°08' W 123°25'0 0.9
2018-Apr-18 13:31N 48°08' W 123°25'0 0.9
2018-Apr-18 13:00N 48°08' W 123°26'1 1.1
2018-Apr-18 12:27N 48°08' W 123°25'2 4.7
2018-Apr-18 12:00N 48°08' W 123°22'2 4.0
2018-Apr-18 11:28N 48°08' W 123°25'0 0.0
2018-Apr-18 10:59N 48°08' W 123°25'0 0.0
2018-Apr-18 10:00N 48°08' W 123°25'0 0.0
2018-Apr-18 09:29N 48°08' W 123°25'0 0.0
2018-Apr-18 08:44N 48°08' W 123°25'0 0.0
2018-Apr-18 08:25N 48°08' W 123°25'0 0.1
2018-Apr-18 07:48N 48°08' W 123°26'0 0.0
2018-Apr-18 07:22N 48°08' W 123°26'0 0.0
2018-Apr-18 06:59N 48°08' W 123°26'0 0.1
2018-Apr-18 06:24N 48°08' W 123°25'0 0.1
2018-Apr-18 05:55N 48°08' W 123°26'0 0.0
2018-Apr-17 14:29N 48°08' W 123°25'0 0.0
2018-Apr-17 14:00N 48°08' W 123°25'0 0.1
2018-Apr-17 13:26N 48°08' W 123°26'0 0.1
2018-Apr-17 12:55N 48°08' W 123°25'0 0.1
2018-Apr-17 12:30N 48°08' W 123°26'0 0.1
2018-Apr-17 11:58N 48°08' W 123°25'0 0.0
2018-Apr-17 11:30N 48°08' W 123°25'0 0.0
2018-Apr-17 11:00N 48°08' W 123°25'0 0.0
2018-Apr-17 10:30N 48°08' W 123°25'0 0.0
2018-Apr-17 10:00N 48°08' W 123°25'0 0.0
2018-Apr-17 09:29N 48°08' W 123°25'0 0.0
2018-Apr-17 08:57N 48°08' W 123°25'0 0.0
2018-Apr-17 08:30N 48°08' W 123°25'0 0.0
2018-Apr-17 07:59N 48°08' W 123°25'0 0.1
2018-Apr-17 07:30N 48°08' W 123°26'0 0.1
2018-Apr-17 06:56N 48°08' W 123°25'0 0.0
2018-Apr-17 06:30N 48°08' W 123°25'0 0.0
2018-Apr-17 06:00N 48°08' W 123°25'0 0.0
2018-Apr-16 14:09N 48°08' W 123°25'0 0.0
2018-Apr-16 14:00N 48°08' W 123°25'0 0.1
2018-Apr-16 13:28N 48°08' W 123°26'0 0.1
2018-Apr-16 12:59N 48°08' W 123°25'0 0.0
2018-Apr-16 12:30N 48°08' W 123°25'0 0.0
2018-Apr-16 12:00N 48°08' W 123°25'0 0.0
2018-Apr-16 11:30N 48°08' W 123°25'0 0.0
2018-Apr-16 10:58N 48°08' W 123°25'0 0.0
2018-Apr-16 10:30N 48°08' W 123°25'0 0.0
2018-Apr-16 10:00N 48°08' W 123°25'0 0.0
2018-Apr-16 09:30N 48°08' W 123°25'0 0.0
2018-Apr-16 09:00N 48°08' W 123°25'0 0.0
2018-Apr-16 08:29N 48°08' W 123°25'0 0.0
2018-Apr-16 08:00N 48°08' W 123°25'0 0.0
2018-Apr-16 07:30N 48°08' W 123°25'0 0.0
2018-Apr-16 07:00N 48°08' W 123°25'0 0.0
2018-Apr-16 06:30N 48°08' W 123°25'0 0.1
2018-Apr-16 06:00N 48°08' W 123°26'0 0.1
2018-Apr-16 05:28N 48°08' W 123°25'0 0.1
2018-Apr-16 05:00N 48°08' W 123°26'1 0.1
2018-Apr-15 14:48N 48°08' W 123°24'2 6.0
2018-Apr-15 14:30N 48°08' W 123°22'2 4.2
2018-Apr-15 14:00N 48°08' W 123°25'1 1.1
2018-Apr-15 13:28N 48°08' W 123°25'0 0.0
2018-Apr-15 13:00N 48°08' W 123°25'0 0.0
2018-Apr-15 12:30N 48°08' W 123°25'0 0.0
2018-Apr-15 12:00N 48°08' W 123°25'0 0.0
2018-Apr-15 11:29N 48°08' W 123°25'0 0.0
2018-Apr-15 10:59N 48°08' W 123°25'0 0.1
2018-Apr-15 10:30N 48°08' W 123°26'0 0.0
2018-Apr-15 09:59N 48°08' W 123°26'0 0.1
2018-Apr-15 09:30N 48°08' W 123°25'0 0.0
2018-Apr-15 08:59N 48°08' W 123°25'0 0.0
2018-Apr-15 08:29N 48°08' W 123°25'0 0.0
2018-Apr-15 07:08N 48°08' W 123°26'0 0.3
2018-Apr-15 06:59N 48°08' W 123°25'0 0.0
2018-Apr-15 06:30N 48°08' W 123°25'0 0.0
2018-Apr-15 06:00N 48°08' W 123°25'0 0.0
2018-Apr-14 14:25N 48°08' W 123°25'0 0.0
2018-Apr-14 13:30N 48°08' W 123°26'0 0.1
2018-Apr-14 12:56N 48°08' W 123°25'2 4.6
2018-Apr-14 12:30N 48°09' W 123°23'2 1.7
2018-Apr-14 11:20N 48°08' W 123°25'0 0.0
2018-Apr-14 10:58N 48°08' W 123°25'0 0.1
2018-Apr-14 10:29N 48°08' W 123°26'0 0.1
2018-Apr-14 09:58N 48°08' W 123°25'0 0.0
2018-Apr-12 13:54N 48°08' W 123°26'0 0.0
2018-Apr-12 13:30N 48°08' W 123°26'  

Dump ship's entire track history